Darregueira, Argentina
Current Conditions -  °F | °C
As of 7:00 PM on Monday 24 Nov 2014 (Local Time) from SAZN Reporting Station
Clear Clear  
Wind Chill: 23°   Ceiling: Unl
Heat Index: 23°   Visibility: 6mi
Dew Point: -2°   Wind: 8mph
Humidity: 19%   Direction: 230°SW
Pressure: 29.88"   Gusts: NA
Location:  37.7°S, 63.17°W
Report Text: SAZN 242200Z 23007KT CAVOK 23/M02 Q1012
Loading
Personal Weather Stations






























Interactive Weather Map New forecast layout! Learn more

10-Day Weather Forecast

Advertisements
Track Severe Weather on mobile